»·PEaware :: ASA3354 KSFO-KSAN

ASA3354 :: KSFO-KSAN

FLIGHT INFORMATION

Flight Status: Arrived
Operator:
Alaska Airlines
More flights by this operator :: More flights under this callsign
Pilot: Andrew C. (28419)
Aircraft: BOEING 737-800
(B738)
More flights by this aircraft type
Origin: KSFO San Francisco Intl
United States
Destination: KSAN San Diego Intl-Lindbergh
United States
More flights between these airports :: More routes between these airports
Route: +OFFSH2 MCKEY LAX COMIX2
File this flight plan on PilotEdge
Remarks: RMK / SIMBRIEF
Altitude:
(Current/Filed)
35,000ft
Speed:
(Current/Filed)
461kts
Departed: 15-Sep-20 06:40 PM
Arrived: 15-Sep-20 07:49 PM
Distance/Time
Traveled:
388nm/1:08
Distance/Time
To Go:
Arrived

Flight Plot

Page will automatically refresh every two minutes.

Flight plan parsing failed; only flown route is shown


Map Options




Map Legend


Flown Route
Filed Route
Departure Airport
Arrival Airport
Navaid (VOR, NDB)
Fix

Horizontal Profiles

Position Reports

Time Latitude Longitude Heading Altitude Ground
Speed
15-Sep-20 18:29 37.616739 -122.381715 22 19ft 0kts
15-Sep-20 18:30 37.616739 -122.381715 22 19ft 0kts
15-Sep-20 18:31 37.616729 -122.381720 22 19ft 1kts
15-Sep-20 18:32 37.616206 -122.382075 67 19ft 2kts
15-Sep-20 18:33 37.616239 -122.382435 119 19ft 0kts
15-Sep-20 18:34 37.616239 -122.382435 119 19ft 0kts
15-Sep-20 18:35 37.615283 -122.380597 166 19ft 9kts
15-Sep-20 18:36 37.611354 -122.383146 209 19ft 19kts
15-Sep-20 18:37 37.608484 -122.383914 118 19ft 0kts
15-Sep-20 18:38 37.608299 -122.383490 120 19ft 14kts
15-Sep-20 18:39 37.631070 -122.367736 16 478ft 182kts
15-Sep-20 18:40 37.686779 -122.371286 349 2310ft 258kts
15-Sep-20 18:41 37.726713 -122.425999 241 5307ft 261kts
15-Sep-20 18:42 37.661322 -122.459754 200 8521ft 268kts
15-Sep-20 18:43 37.596452 -122.516783 216 10642ft 319kts
15-Sep-20 18:44 37.521705 -122.586892 214 13383ft 341kts
15-Sep-20 18:45 37.441201 -122.654998 200 16245ft 355kts
15-Sep-20 18:47 37.341726 -122.662595 171 18801ft 373kts
15-Sep-20 18:48 37.237267 -122.637617 170 21115ft 387kts
15-Sep-20 18:49 37.129074 -122.611414 171 23215ft 400kts
15-Sep-20 18:50 37.017368 -122.584804 172 25095ft 413kts
15-Sep-20 18:51 36.902409 -122.556411 171 26888ft 422kts
15-Sep-20 18:52 36.784465 -122.525594 172 28505ft 432kts
15-Sep-20 18:53 36.663513 -122.494175 173 30033ft 440kts
15-Sep-20 18:54 36.542463 -122.462809 174 31922ft 435kts
15-Sep-20 18:55 36.424981 -122.418258 154 33579ft 451kts
15-Sep-20 18:56 36.334343 -122.302600 137 34979ft 467kts
15-Sep-20 18:57 36.247948 -122.176968 137 35109ft 471kts
15-Sep-20 18:58 36.161684 -122.051590 137 35113ft 471kts
15-Sep-20 18:59 36.075432 -121.926605 137 35117ft 471kts
15-Sep-20 19:00 35.988868 -121.801600 137 35118ft 471kts
15-Sep-20 19:01 35.902207 -121.676907 137 35095ft 471kts
15-Sep-20 19:02 35.815537 -121.552664 137 35073ft 473kts
15-Sep-20 19:03 35.727930 -121.427523 137 35073ft 472kts
15-Sep-20 19:03 35.655490 -121.324386 137 35072ft 472kts
15-Sep-20 19:05 35.553373 -121.179463 137 35081ft 473kts
15-Sep-20 19:06 35.467457 -121.053510 131 35080ft 479kts
15-Sep-20 19:06 35.402945 -120.940415 130 35085ft 480kts
15-Sep-20 19:07 35.325479 -120.803670 130 35091ft 480kts
15-Sep-20 19:09 35.234860 -120.644068 129 35091ft 482kts
15-Sep-20 19:09 35.170183 -120.530539 129 35091ft 482kts
15-Sep-20 19:10 35.092482 -120.394616 129 35091ft 482kts
15-Sep-20 19:11 35.014355 -120.258373 130 35091ft 481kts
15-Sep-20 19:12 34.936469 -120.123097 130 35080ft 482kts
15-Sep-20 19:13 34.858700 -119.988592 129 35064ft 482kts
15-Sep-20 19:14 34.779488 -119.852162 129 35064ft 485kts
15-Sep-20 19:15 34.700646 -119.716834 129 35064ft 484kts
15-Sep-20 19:16 34.621469 -119.581494 129 35064ft 485kts
15-Sep-20 19:17 34.542609 -119.447117 129 35064ft 479kts
15-Sep-20 19:18 34.463740 -119.313319 130 35063ft 481kts
15-Sep-20 19:19 34.385223 -119.180497 130 35064ft 482kts
15-Sep-20 19:20 34.306083 -119.047178 129 35064ft 482kts
15-Sep-20 19:21 34.226508 -118.913670 129 35079ft 483kts
15-Sep-20 19:22 34.146497 -118.779905 129 35067ft 484kts
15-Sep-20 19:23 34.066647 -118.646941 129 35038ft 485kts
15-Sep-20 19:24 33.986971 -118.514740 128 35036ft 481kts
15-Sep-20 19:25 33.900963 -118.389662 136 35009ft 479kts
15-Sep-20 19:26 33.807873 -118.269443 136 32042ft 492kts
15-Sep-20 19:27 33.714722 -118.147872 135 29190ft 475kts
15-Sep-20 19:28 33.627198 -118.032906 134 27142ft 446kts
15-Sep-20 19:29 33.543982 -117.925103 137 25081ft 422kts
15-Sep-20 19:30 33.460311 -117.828095 137 23033ft 404kts
15-Sep-20 19:31 33.377797 -117.737842 139 20977ft 388kts
15-Sep-20 19:32 33.297087 -117.652053 138 18899ft 376kts
15-Sep-20 19:33 33.218906 -117.569260 138 16796ft 365kts
15-Sep-20 19:34 33.142344 -117.488879 139 14618ft 355kts
15-Sep-20 19:35 33.061693 -117.420463 144 12380ft 347kts
15-Sep-20 19:36 32.983331 -117.354786 144 10773ft 320kts
15-Sep-20 19:37 32.913633 -117.296247 145 9901ft 288kts
15-Sep-20 19:38 32.848992 -117.241131 145 8474ft 271kts
15-Sep-20 19:39 32.803572 -117.173207 104 7109ft 271kts
15-Sep-20 19:40 32.784267 -117.086121 105 6118ft 252kts
15-Sep-20 19:41 32.765750 -117.010204 106 5563ft 225kts
15-Sep-20 19:42 32.733059 -116.954775 169 4607ft 197kts
15-Sep-20 19:43 32.694637 -116.985320 249 3761ft 180kts
15-Sep-20 19:44 32.697630 -117.042207 287 2672ft 171kts
15-Sep-20 19:45 32.710987 -117.096906 287 1609ft 152kts
15-Sep-20 19:46 32.722302 -117.143426 288 750ft 145kts
15-Sep-20 19:47 32.733463 -117.189189 286 26ft 105kts
15-Sep-20 19:48 32.734947 -117.198755 247 26ft 2kts
15-Sep-20 19:49 32.733925 -117.199701 188 26ft 3kts
15-Sep-20 19:50 32.733373 -117.199096 116 26ft 0kts

Navigation Log

Ident Type
Flight plan parsing failed, navigation log unavailable